KAL1021 RKSI-RJAA
Flight info
| Callsign | KAL1021 |
|---|---|
| Flight time | 1h 47m |
| Altitude | 35000 |
| Route | EGOBA2Y EGOBA Y697 KARBU DCT LANAT Y51 SAMON Y517 ESKAS Y303 ENTAK/N0464F360 Y30 SWAMP |
| Aircraft | A306/H-SDE3FGHIRWY/LB1 |
Departure
| Time | 2026-05-08 03:44 |
|---|---|
| Airport | Incheon International Airport (RKSI) |
Arrival
| Time | 2026-05-08 05:31 |
|---|---|
| Airport | Narita International Airport (RJAA) |
| Time | Latitude | Longitude | Altitude | Speed | Heading |
|---|---|---|---|---|---|
| 2026-05-08 03:05 | 37.46540 | 126.46717 | 33 ft | 0 kts | 144° |
| 2026-05-08 03:33 | 37.46544 | 126.46712 | 33 ft | 2 kts | 144° |
| 2026-05-08 03:33 | 37.46563 | 126.46696 | 33 ft | 4 kts | 144° |
| 2026-05-08 03:33 | 37.46596 | 126.46667 | 33 ft | 6 kts | 145° |
| 2026-05-08 03:34 | 37.46641 | 126.46628 | 33 ft | 9 kts | 146° |
| 2026-05-08 03:34 | 37.46700 | 126.46579 | 33 ft | 11 kts | 146° |
| 2026-05-08 03:34 | 37.46771 | 126.46521 | 33 ft | 13 kts | 147° |
| 2026-05-08 03:34 | 37.46819 | 126.46484 | 33 ft | 0 kts | 149° |
| 2026-05-08 03:36 | 37.46818 | 126.46484 | 33 ft | 0 kts | 149° |
| 2026-05-08 03:38 | 37.46817 | 126.46486 | 33 ft | 1 kts | 149° |
| 2026-05-08 03:38 | 37.46759 | 126.46529 | 33 ft | 22 kts | 146° |
| 2026-05-08 03:38 | 37.46610 | 126.46547 | 33 ft | 24 kts | 251° |
| 2026-05-08 03:38 | 37.46528 | 126.46375 | 33 ft | 22 kts | 212° |
| 2026-05-08 03:39 | 37.46393 | 126.46262 | 33 ft | 23 kts | 219° |
| 2026-05-08 03:39 | 37.46254 | 126.46225 | 33 ft | 21 kts | 146° |
| 2026-05-08 03:39 | 37.46133 | 126.46336 | 33 ft | 21 kts | 144° |
| 2026-05-08 03:39 | 37.46007 | 126.46446 | 33 ft | 21 kts | 145° |
| 2026-05-08 03:40 | 37.45882 | 126.46556 | 33 ft | 22 kts | 144° |
| 2026-05-08 03:40 | 37.45756 | 126.46669 | 33 ft | 22 kts | 144° |
| 2026-05-08 03:40 | 37.45728 | 126.46675 | 33 ft | 2 kts | 243° |
| 2026-05-08 03:40 | 37.45724 | 126.46645 | 33 ft | 6 kts | 261° |
| 2026-05-08 03:41 | 37.45711 | 126.46579 | 33 ft | 8 kts | 250° |
| 2026-05-08 03:41 | 37.45692 | 126.46510 | 33 ft | 8 kts | 253° |
| 2026-05-08 03:41 | 37.45692 | 126.46440 | 33 ft | 7 kts | 286° |
| 2026-05-08 03:41 | 37.45720 | 126.46394 | 33 ft | 0 kts | 323° |
| 2026-05-08 03:42 | 37.45721 | 126.46394 | 33 ft | 0 kts | 323° |
| 2026-05-08 03:42 | 37.45795 | 126.46326 | 33 ft | 33 kts | 325° |
| 2026-05-08 03:42 | 37.46111 | 126.46044 | 33 ft | 76 kts | 324° |
| 2026-05-08 03:42 | 37.46660 | 126.45559 | 33 ft | 113 kts | 323° |
| 2026-05-08 03:43 | 37.47386 | 126.44912 | 33 ft | 143 kts | 324° |
| 2026-05-08 03:43 | 37.48260 | 126.44175 | 169 ft | 150 kts | 328° |
| 2026-05-08 03:43 | 37.49173 | 126.43508 | 329 ft | 165 kts | 332° |
| 2026-05-08 03:43 | 37.50313 | 126.42792 | 567 ft | 202 kts | 335° |
| 2026-05-08 03:44 | 37.51728 | 126.42007 | 880 ft | 236 kts | 335° |
| 2026-05-08 03:44 | 37.53285 | 126.41170 | 1499 ft | 261 kts | 341° |
| 2026-05-08 03:44 | 37.55036 | 126.40447 | 2378 ft | 261 kts | 338° |
| 2026-05-08 03:44 | 37.56771 | 126.39586 | 2515 ft | 282 kts | 336° |
| 2026-05-08 03:45 | 37.58547 | 126.38548 | 2654 ft | 275 kts | 324° |
| 2026-05-08 03:45 | 37.60126 | 126.37221 | 3281 ft | 275 kts | 334° |
| 2026-05-08 03:45 | 37.61955 | 126.36929 | 4502 ft | 273 kts | 4° |
| 2026-05-08 03:45 | 37.63723 | 126.37628 | 5666 ft | 273 kts | 26° |
| 2026-05-08 03:46 | 37.65152 | 126.39207 | 6528 ft | 283 kts | 51° |
| 2026-05-08 03:46 | 37.65935 | 126.41497 | 7322 ft | 292 kts | 79° |
| 2026-05-08 03:46 | 37.65871 | 126.44083 | 8124 ft | 298 kts | 99° |
| 2026-05-08 03:46 | 37.65437 | 126.46646 | 8901 ft | 303 kts | 103° |
| 2026-05-08 03:47 | 37.64835 | 126.49777 | 9864 ft | 308 kts | 103° |
| 2026-05-08 03:47 | 37.64335 | 126.52432 | 10544 ft | 318 kts | 103° |
| 2026-05-08 03:47 | 37.63823 | 126.55217 | 10892 ft | 338 kts | 103° |
| 2026-05-08 03:47 | 37.63284 | 126.58204 | 11221 ft | 359 kts | 103° |
| 2026-05-08 03:48 | 37.62725 | 126.61329 | 11540 ft | 380 kts | 103° |
| 2026-05-08 03:48 | 37.62127 | 126.64674 | 11882 ft | 399 kts | 103° |
| 2026-05-08 03:48 | 37.61509 | 126.68133 | 12459 ft | 411 kts | 103° |
| 2026-05-08 03:48 | 37.60871 | 126.71698 | 13177 ft | 418 kts | 103° |
| 2026-05-08 03:49 | 37.60228 | 126.75287 | 13939 ft | 423 kts | 103° |
| 2026-05-08 03:49 | 37.59580 | 126.78895 | 14646 ft | 428 kts | 104° |
| 2026-05-08 03:49 | 37.58914 | 126.82585 | 15311 ft | 434 kts | 104° |
| 2026-05-08 03:49 | 37.58240 | 126.86314 | 15953 ft | 441 kts | 104° |
| 2026-05-08 03:50 | 37.57551 | 126.90120 | 16596 ft | 447 kts | 104° |
| 2026-05-08 03:50 | 37.56864 | 126.93911 | 17220 ft | 452 kts | 104° |
| 2026-05-08 03:50 | 37.56151 | 126.97833 | 17844 ft | 458 kts | 104° |
| 2026-05-08 03:50 | 37.55437 | 127.01756 | 18440 ft | 463 kts | 104° |
| 2026-05-08 03:51 | 37.54707 | 127.05757 | 19028 ft | 469 kts | 104° |
| 2026-05-08 03:51 | 37.53968 | 127.09797 | 19607 ft | 474 kts | 104° |
| 2026-05-08 03:51 | 37.53221 | 127.13876 | 20181 ft | 479 kts | 104° |
| 2026-05-08 03:51 | 37.52466 | 127.17986 | 20767 ft | 485 kts | 104° |
| 2026-05-08 03:52 | 37.51694 | 127.22181 | 21341 ft | 490 kts | 104° |
| 2026-05-08 03:52 | 37.50913 | 127.26418 | 21892 ft | 495 kts | 104° |
| 2026-05-08 03:52 | 37.50128 | 127.30666 | 22438 ft | 500 kts | 104° |
| 2026-05-08 03:52 | 37.49340 | 127.34918 | 22972 ft | 505 kts | 104° |
| 2026-05-08 03:53 | 37.48830 | 127.39316 | 23440 ft | 512 kts | 90° |
| 2026-05-08 03:53 | 37.49227 | 127.43786 | 23901 ft | 515 kts | 77° |
| 2026-05-08 03:53 | 37.50104 | 127.48222 | 24423 ft | 518 kts | 72° |
| 2026-05-08 03:53 | 37.51037 | 127.52617 | 24857 ft | 525 kts | 73° |
| 2026-05-08 03:54 | 37.51879 | 127.57149 | 25346 ft | 531 kts | 76° |
| 2026-05-08 03:54 | 37.52613 | 127.61690 | 25909 ft | 536 kts | 77° |
| 2026-05-08 03:54 | 37.53318 | 127.66327 | 26445 ft | 540 kts | 78° |
| 2026-05-08 03:54 | 37.54034 | 127.71018 | 26833 ft | 545 kts | 78° |
| 2026-05-08 03:55 | 37.54764 | 127.75690 | 27188 ft | 549 kts | 77° |
| 2026-05-08 03:55 | 37.55519 | 127.80439 | 27523 ft | 551 kts | 77° |
| 2026-05-08 03:55 | 37.56272 | 127.85165 | 27863 ft | 552 kts | 77° |
| 2026-05-08 03:55 | 37.57019 | 127.89887 | 28202 ft | 552 kts | 77° |
| 2026-05-08 03:56 | 37.57771 | 127.94669 | 28560 ft | 553 kts | 77° |
| 2026-05-08 03:56 | 37.58508 | 127.99381 | 28911 ft | 553 kts | 77° |
| 2026-05-08 03:56 | 37.59261 | 128.04205 | 29258 ft | 553 kts | 77° |
| 2026-05-08 03:56 | 37.60000 | 128.08949 | 29596 ft | 553 kts | 77° |
| 2026-05-08 03:57 | 37.60737 | 128.13705 | 29932 ft | 554 kts | 77° |
| 2026-05-08 03:57 | 37.61461 | 128.18451 | 30259 ft | 554 kts | 77° |
| 2026-05-08 03:57 | 37.62187 | 128.23204 | 30586 ft | 554 kts | 77° |
| 2026-05-08 03:57 | 37.62912 | 128.27931 | 30907 ft | 552 kts | 77° |
| 2026-05-08 03:58 | 37.63642 | 128.32677 | 31206 ft | 552 kts | 77° |
| 2026-05-08 03:58 | 37.64372 | 128.37430 | 31468 ft | 552 kts | 77° |
| 2026-05-08 03:58 | 37.65102 | 128.42203 | 31715 ft | 553 kts | 77° |
| 2026-05-08 03:58 | 37.65832 | 128.46995 | 31976 ft | 552 kts | 77° |
| 2026-05-08 03:59 | 37.66556 | 128.51755 | 32219 ft | 553 kts | 77° |
| 2026-05-08 03:59 | 37.67277 | 128.56514 | 32437 ft | 553 kts | 77° |
| 2026-05-08 03:59 | 37.67984 | 128.61255 | 32667 ft | 553 kts | 77° |
| 2026-05-08 03:59 | 37.68689 | 128.66043 | 32889 ft | 553 kts | 78° |
| 2026-05-08 04:00 | 37.69399 | 128.70831 | 33031 ft | 554 kts | 78° |
| 2026-05-08 04:00 | 37.69702 | 128.75650 | 33133 ft | 553 kts | 95° |
| 2026-05-08 04:00 | 37.68934 | 128.80327 | 33281 ft | 542 kts | 115° |
| 2026-05-08 04:00 | 37.67170 | 128.84421 | 33435 ft | 525 kts | 134° |
| 2026-05-08 04:01 | 37.64890 | 128.87967 | 33588 ft | 522 kts | 138° |
| 2026-05-08 04:01 | 37.62606 | 128.91544 | 33699 ft | 527 kts | 135° |
| 2026-05-08 04:01 | 37.60446 | 128.95369 | 33829 ft | 533 kts | 130° |
| 2026-05-08 04:01 | 37.58480 | 128.99316 | 33952 ft | 536 kts | 127° |
| 2026-05-08 04:02 | 37.56612 | 129.03330 | 34078 ft | 538 kts | 126° |
| 2026-05-08 04:02 | 37.54715 | 129.07428 | 34204 ft | 538 kts | 126° |
| 2026-05-08 04:02 | 37.52802 | 129.11473 | 34333 ft | 537 kts | 127° |
| 2026-05-08 04:02 | 37.50876 | 129.15463 | 34460 ft | 536 kts | 128° |
| 2026-05-08 04:03 | 37.48945 | 129.19437 | 34589 ft | 535 kts | 128° |
| 2026-05-08 04:03 | 37.45085 | 129.27396 | 34850 ft | 533 kts | 127° |
| 2026-05-08 04:03 | 37.43155 | 129.31364 | 34982 ft | 531 kts | 128° |
| 2026-05-08 04:04 | 37.39319 | 129.39233 | 35026 ft | 531 kts | 127° |
| 2026-05-08 04:04 | 37.35456 | 129.47185 | 35033 ft | 531 kts | 127° |
| 2026-05-08 04:05 | 37.31604 | 129.55096 | 35041 ft | 532 kts | 127° |
| 2026-05-08 04:05 | 37.27739 | 129.63010 | 35049 ft | 532 kts | 127° |
| 2026-05-08 04:06 | 37.23855 | 129.70952 | 35013 ft | 532 kts | 128° |
| 2026-05-08 04:06 | 37.19996 | 129.78827 | 35013 ft | 531 kts | 128° |
| 2026-05-08 04:07 | 37.16145 | 129.86636 | 35017 ft | 530 kts | 128° |
| 2026-05-08 04:07 | 37.12231 | 129.94525 | 35018 ft | 530 kts | 128° |
| 2026-05-08 04:08 | 37.08329 | 130.02422 | 35017 ft | 530 kts | 128° |
| 2026-05-08 04:08 | 37.04439 | 130.10283 | 35018 ft | 528 kts | 127° |
| 2026-05-08 04:09 | 37.00592 | 130.18028 | 35018 ft | 526 kts | 127° |
| 2026-05-08 04:09 | 36.96743 | 130.25764 | 35020 ft | 523 kts | 127° |
| 2026-05-08 04:10 | 36.92901 | 130.33461 | 35013 ft | 521 kts | 127° |
| 2026-05-08 04:10 | 36.89048 | 130.41165 | 34994 ft | 520 kts | 126° |
| 2026-05-08 04:11 | 36.85196 | 130.48851 | 34959 ft | 520 kts | 126° |
| 2026-05-08 04:11 | 36.81340 | 130.56532 | 34939 ft | 520 kts | 126° |
| 2026-05-08 04:12 | 36.77490 | 130.64185 | 34934 ft | 519 kts | 126° |
| 2026-05-08 04:12 | 36.73645 | 130.71758 | 34883 ft | 519 kts | 127° |
| 2026-05-08 04:13 | 36.69777 | 130.79366 | 34881 ft | 518 kts | 127° |
| 2026-05-08 04:13 | 36.65929 | 130.86971 | 34884 ft | 518 kts | 127° |
| 2026-05-08 04:14 | 36.62089 | 130.94531 | 34885 ft | 518 kts | 127° |
| 2026-05-08 04:14 | 36.58231 | 131.02112 | 34891 ft | 518 kts | 127° |
| 2026-05-08 04:15 | 36.54353 | 131.09714 | 34890 ft | 519 kts | 127° |
| 2026-05-08 04:15 | 36.50469 | 131.17308 | 34895 ft | 519 kts | 127° |
| 2026-05-08 04:16 | 36.46587 | 131.24884 | 34898 ft | 519 kts | 127° |
| 2026-05-08 04:16 | 36.42715 | 131.32428 | 34903 ft | 519 kts | 127° |
| 2026-05-08 04:17 | 36.38826 | 131.39980 | 34900 ft | 520 kts | 127° |
| 2026-05-08 04:17 | 36.37144 | 131.43901 | 34894 ft | 523 kts | 111° |
| 2026-05-08 04:17 | 36.36422 | 131.48314 | 34940 ft | 522 kts | 92° |
| 2026-05-08 04:18 | 36.36676 | 131.57323 | 34917 ft | 525 kts | 85° |
| 2026-05-08 04:18 | 36.36702 | 131.66391 | 34919 ft | 528 kts | 92° |
| 2026-05-08 04:19 | 36.36330 | 131.75507 | 34885 ft | 529 kts | 93° |
| 2026-05-08 04:19 | 36.36019 | 131.84686 | 34888 ft | 529 kts | 92° |
| 2026-05-08 04:20 | 36.35731 | 131.93788 | 34887 ft | 530 kts | 92° |
| 2026-05-08 04:20 | 36.35418 | 132.02931 | 34888 ft | 530 kts | 92° |
| 2026-05-08 04:21 | 36.35107 | 132.12038 | 34892 ft | 530 kts | 92° |
| 2026-05-08 04:21 | 36.34792 | 132.21188 | 34895 ft | 530 kts | 92° |
| 2026-05-08 04:22 | 36.34460 | 132.30284 | 34900 ft | 530 kts | 92° |
| 2026-05-08 04:22 | 36.34122 | 132.39439 | 34899 ft | 530 kts | 92° |
| 2026-05-08 04:23 | 36.33780 | 132.48557 | 34905 ft | 531 kts | 92° |
| 2026-05-08 04:23 | 36.33423 | 132.57759 | 34905 ft | 531 kts | 92° |
| 2026-05-08 04:24 | 36.33084 | 132.66899 | 34905 ft | 531 kts | 91° |
| 2026-05-08 04:24 | 36.33324 | 132.76021 | 34885 ft | 530 kts | 85° |
| 2026-05-08 04:25 | 36.33727 | 132.85181 | 34886 ft | 530 kts | 87° |
| 2026-05-08 04:25 | 36.34000 | 132.94263 | 34885 ft | 530 kts | 87° |
| 2026-05-08 04:26 | 36.34254 | 133.03442 | 34893 ft | 530 kts | 87° |
| 2026-05-08 04:26 | 36.34494 | 133.12573 | 34895 ft | 529 kts | 86° |
| 2026-05-08 04:27 | 36.34759 | 133.21727 | 34897 ft | 529 kts | 87° |
| 2026-05-08 04:27 | 36.35016 | 133.30862 | 34896 ft | 528 kts | 87° |
| 2026-05-08 04:28 | 36.35241 | 133.39969 | 34903 ft | 528 kts | 86° |
| 2026-05-08 04:28 | 36.35479 | 133.49132 | 34902 ft | 528 kts | 87° |
| 2026-05-08 04:29 | 36.35711 | 133.58258 | 34909 ft | 529 kts | 87° |
| 2026-05-08 04:29 | 36.35910 | 133.67395 | 34907 ft | 529 kts | 88° |
| 2026-05-08 04:30 | 36.36120 | 133.76524 | 34887 ft | 528 kts | 88° |
| 2026-05-08 04:30 | 36.36314 | 133.85667 | 34879 ft | 528 kts | 87° |
| 2026-05-08 04:31 | 36.36541 | 133.94745 | 34889 ft | 528 kts | 87° |
| 2026-05-08 04:31 | 36.36723 | 134.03832 | 34891 ft | 528 kts | 88° |
| 2026-05-08 04:32 | 36.36906 | 134.12935 | 34893 ft | 528 kts | 88° |
| 2026-05-08 04:32 | 36.37057 | 134.22047 | 34891 ft | 528 kts | 88° |
| 2026-05-08 04:33 | 36.37221 | 134.31165 | 34900 ft | 528 kts | 88° |
| 2026-05-08 04:33 | 36.37402 | 134.40280 | 34904 ft | 528 kts | 87° |
| 2026-05-08 04:34 | 36.37558 | 134.49377 | 34905 ft | 529 kts | 88° |
| 2026-05-08 04:34 | 36.37710 | 134.58499 | 34906 ft | 529 kts | 87° |
| 2026-05-08 04:35 | 36.37864 | 134.67624 | 34917 ft | 529 kts | 88° |
| 2026-05-08 04:35 | 36.37996 | 134.76769 | 34885 ft | 529 kts | 88° |
| 2026-05-08 04:36 | 36.38123 | 134.85869 | 34890 ft | 529 kts | 89° |
| 2026-05-08 04:36 | 36.38229 | 134.95012 | 34888 ft | 528 kts | 88° |
| 2026-05-08 04:37 | 36.38352 | 135.04147 | 34891 ft | 529 kts | 88° |
| 2026-05-08 04:37 | 36.38460 | 135.13301 | 34888 ft | 529 kts | 88° |
| 2026-05-08 04:38 | 36.38555 | 135.22398 | 34890 ft | 530 kts | 88° |
| 2026-05-08 04:38 | 36.38666 | 135.31593 | 34900 ft | 530 kts | 88° |
| 2026-05-08 04:39 | 36.38757 | 135.40796 | 34899 ft | 530 kts | 88° |
| 2026-05-08 04:39 | 36.38826 | 135.49930 | 34880 ft | 531 kts | 88° |
| 2026-05-08 04:40 | 36.38901 | 135.59113 | 34858 ft | 532 kts | 88° |
| 2026-05-08 04:40 | 36.38953 | 135.68318 | 34823 ft | 532 kts | 89° |
| 2026-05-08 04:41 | 36.39017 | 135.77504 | 34774 ft | 532 kts | 89° |
| 2026-05-08 04:41 | 36.39101 | 135.86719 | 34782 ft | 530 kts | 86° |
| 2026-05-08 04:42 | 36.39769 | 135.91127 | 34790 ft | 518 kts | 65° |
| 2026-05-08 04:42 | 36.41467 | 135.95030 | 34811 ft | 500 kts | 45° |
| 2026-05-08 04:42 | 36.43798 | 135.98086 | 34840 ft | 489 kts | 35° |
| 2026-05-08 04:42 | 36.46360 | 136.00845 | 34813 ft | 488 kts | 32° |
| 2026-05-08 04:43 | 36.51664 | 136.06213 | 34784 ft | 491 kts | 31° |
| 2026-05-08 04:43 | 36.56930 | 136.11646 | 34777 ft | 497 kts | 37° |
| 2026-05-08 04:44 | 36.59191 | 136.14970 | 34785 ft | 508 kts | 51° |
| 2026-05-08 04:44 | 36.60729 | 136.18997 | 34800 ft | 517 kts | 70° |
| 2026-05-08 04:44 | 36.61353 | 136.23465 | 34827 ft | 521 kts | 85° |
| 2026-05-08 04:44 | 36.61383 | 136.27988 | 34825 ft | 524 kts | 91° |
| 2026-05-08 04:45 | 36.61300 | 136.37183 | 34807 ft | 527 kts | 87° |
| 2026-05-08 04:45 | 36.61607 | 136.46355 | 34800 ft | 529 kts | 85° |
| 2026-05-08 04:46 | 36.61937 | 136.55531 | 34798 ft | 530 kts | 86° |
| 2026-05-08 04:46 | 36.62213 | 136.64790 | 34804 ft | 531 kts | 86° |
| 2026-05-08 04:47 | 36.62483 | 136.73994 | 34774 ft | 531 kts | 87° |
| 2026-05-08 04:47 | 36.62751 | 136.83180 | 34773 ft | 531 kts | 87° |
| 2026-05-08 04:48 | 36.63012 | 136.92377 | 34774 ft | 531 kts | 86° |
| 2026-05-08 04:48 | 36.63817 | 137.01497 | 34784 ft | 527 kts | 77° |
| 2026-05-08 04:49 | 36.65270 | 137.10475 | 34780 ft | 526 kts | 76° |
| 2026-05-08 04:49 | 36.66614 | 137.19568 | 34780 ft | 527 kts | 77° |
| 2026-05-08 04:50 | 36.67870 | 137.28554 | 34781 ft | 527 kts | 77° |
| 2026-05-08 04:50 | 36.69146 | 137.37567 | 34782 ft | 527 kts | 77° |
| 2026-05-08 04:51 | 36.70427 | 137.46626 | 34785 ft | 528 kts | 77° |
| 2026-05-08 04:51 | 36.71702 | 137.55727 | 34790 ft | 528 kts | 77° |
| 2026-05-08 04:52 | 36.72969 | 137.64825 | 34796 ft | 528 kts | 77° |
| 2026-05-08 04:52 | 36.74234 | 137.73926 | 34773 ft | 528 kts | 78° |
| 2026-05-08 04:53 | 36.75490 | 137.83026 | 34778 ft | 527 kts | 78° |
| 2026-05-08 04:53 | 36.76733 | 137.92116 | 34781 ft | 527 kts | 78° |
| 2026-05-08 04:54 | 36.77966 | 138.01173 | 34781 ft | 527 kts | 78° |
| 2026-05-08 04:54 | 36.79186 | 138.10239 | 34783 ft | 527 kts | 78° |
| 2026-05-08 04:55 | 36.80395 | 138.19327 | 34783 ft | 527 kts | 77° |
| 2026-05-08 04:55 | 36.81644 | 138.28381 | 34781 ft | 528 kts | 77° |
| 2026-05-08 04:56 | 36.82880 | 138.37383 | 34781 ft | 528 kts | 77° |
| 2026-05-08 04:56 | 36.84111 | 138.46452 | 34783 ft | 528 kts | 78° |
| 2026-05-08 04:57 | 36.85316 | 138.55583 | 34788 ft | 528 kts | 78° |
| 2026-05-08 04:57 | 36.86515 | 138.64699 | 34795 ft | 528 kts | 77° |
| 2026-05-08 04:58 | 36.87718 | 138.73799 | 34773 ft | 528 kts | 78° |
| 2026-05-08 04:58 | 36.88913 | 138.82928 | 34777 ft | 528 kts | 78° |
| 2026-05-08 04:59 | 36.90087 | 138.91981 | 34778 ft | 528 kts | 78° |
| 2026-05-08 04:59 | 36.91264 | 139.01103 | 34779 ft | 528 kts | 78° |
| 2026-05-08 05:00 | 36.92431 | 139.10242 | 34771 ft | 528 kts | 78° |
| 2026-05-08 05:00 | 36.93603 | 139.19344 | 34779 ft | 527 kts | 77° |
| 2026-05-08 05:01 | 36.94786 | 139.28420 | 34786 ft | 527 kts | 77° |
| 2026-05-08 05:01 | 36.95972 | 139.37589 | 34786 ft | 527 kts | 77° |
| 2026-05-08 05:02 | 36.97143 | 139.46719 | 34744 ft | 529 kts | 77° |
| 2026-05-08 05:02 | 36.97717 | 139.51274 | 34556 ft | 531 kts | 78° |
| 2026-05-08 05:02 | 36.98289 | 139.55852 | 34438 ft | 524 kts | 78° |
| 2026-05-08 05:03 | 36.98850 | 139.60324 | 34314 ft | 511 kts | 78° |
| 2026-05-08 05:03 | 36.99406 | 139.64739 | 34173 ft | 499 kts | 77° |
| 2026-05-08 05:03 | 36.99947 | 139.69000 | 33903 ft | 498 kts | 78° |
| 2026-05-08 05:03 | 37.00504 | 139.73373 | 33650 ft | 506 kts | 78° |
| 2026-05-08 05:04 | 37.01068 | 139.77818 | 33398 ft | 516 kts | 78° |
| 2026-05-08 05:04 | 37.01629 | 139.82336 | 33149 ft | 527 kts | 79° |
| 2026-05-08 05:04 | 37.02191 | 139.86911 | 32910 ft | 534 kts | 79° |
| 2026-05-08 05:04 | 37.02759 | 139.91533 | 32646 ft | 537 kts | 79° |
| 2026-05-08 05:05 | 37.03330 | 139.96156 | 32394 ft | 537 kts | 79° |
| 2026-05-08 05:05 | 37.03900 | 140.00786 | 32142 ft | 537 kts | 79° |
| 2026-05-08 05:05 | 37.04467 | 140.05426 | 31891 ft | 537 kts | 79° |
| 2026-05-08 05:05 | 37.05038 | 140.10113 | 31638 ft | 538 kts | 79° |
| 2026-05-08 05:06 | 37.05603 | 140.14748 | 31391 ft | 538 kts | 79° |
| 2026-05-08 05:06 | 37.06173 | 140.19421 | 31142 ft | 539 kts | 79° |
| 2026-05-08 05:06 | 37.06741 | 140.24107 | 30895 ft | 539 kts | 79° |
| 2026-05-08 05:06 | 37.07299 | 140.28770 | 30650 ft | 540 kts | 79° |
| 2026-05-08 05:07 | 37.07862 | 140.33479 | 30404 ft | 540 kts | 79° |
| 2026-05-08 05:07 | 37.08425 | 140.38191 | 30160 ft | 541 kts | 79° |
| 2026-05-08 05:07 | 37.08986 | 140.42873 | 29919 ft | 541 kts | 79° |
| 2026-05-08 05:07 | 37.09547 | 140.47569 | 29678 ft | 541 kts | 79° |
| 2026-05-08 05:08 | 37.10107 | 140.52280 | 29474 ft | 539 kts | 79° |
| 2026-05-08 05:08 | 37.10602 | 140.56999 | 29310 ft | 532 kts | 85° |
| 2026-05-08 05:08 | 37.10289 | 140.61630 | 28845 ft | 531 kts | 105° |
| 2026-05-08 05:08 | 37.08915 | 140.65836 | 28401 ft | 518 kts | 125° |
| 2026-05-08 05:09 | 37.06673 | 140.69276 | 27794 ft | 504 kts | 141° |
| 2026-05-08 05:09 | 37.04082 | 140.72272 | 27167 ft | 502 kts | 142° |
| 2026-05-08 05:09 | 37.01339 | 140.74866 | 26475 ft | 493 kts | 153° |
| 2026-05-08 05:09 | 36.98325 | 140.76955 | 25830 ft | 484 kts | 162° |
| 2026-05-08 05:10 | 36.95119 | 140.77916 | 25132 ft | 465 kts | 182° |
| 2026-05-08 05:10 | 36.89107 | 140.76131 | 23860 ft | 439 kts | 208° |
| 2026-05-08 05:10 | 36.86291 | 140.74669 | 23284 ft | 437 kts | 207° |
| 2026-05-08 05:11 | 36.83426 | 140.73363 | 22694 ft | 437 kts | 204° |
| 2026-05-08 05:11 | 36.80530 | 140.72201 | 22097 ft | 431 kts | 202° |
| 2026-05-08 05:11 | 36.77723 | 140.71146 | 21254 ft | 418 kts | 201° |
| 2026-05-08 05:11 | 36.74942 | 140.70105 | 20092 ft | 414 kts | 201° |
| 2026-05-08 05:12 | 36.72227 | 140.69078 | 18883 ft | 410 kts | 201° |
| 2026-05-08 05:12 | 36.69498 | 140.68036 | 17681 ft | 405 kts | 201° |
| 2026-05-08 05:12 | 36.66855 | 140.67026 | 16703 ft | 394 kts | 200° |
| 2026-05-08 05:12 | 36.64274 | 140.66040 | 16004 ft | 378 kts | 200° |
| 2026-05-08 05:13 | 36.61793 | 140.65093 | 15735 ft | 376 kts | 200° |
| 2026-05-08 05:13 | 36.59159 | 140.64079 | 15288 ft | 401 kts | 200° |
| 2026-05-08 05:13 | 36.56482 | 140.63055 | 14881 ft | 404 kts | 200° |
| 2026-05-08 05:13 | 36.53783 | 140.62035 | 14598 ft | 395 kts | 199° |
| 2026-05-08 05:14 | 36.51164 | 140.61044 | 14347 ft | 395 kts | 199° |
| 2026-05-08 05:14 | 36.48545 | 140.60049 | 14098 ft | 397 kts | 199° |
| 2026-05-08 05:14 | 36.45888 | 140.59041 | 13696 ft | 395 kts | 199° |
| 2026-05-08 05:14 | 36.43296 | 140.58057 | 13340 ft | 387 kts | 199° |
| 2026-05-08 05:15 | 36.40709 | 140.57075 | 12898 ft | 381 kts | 199° |
| 2026-05-08 05:15 | 36.38196 | 140.56123 | 12444 ft | 376 kts | 199° |
| 2026-05-08 05:15 | 36.35667 | 140.55225 | 11941 ft | 373 kts | 192° |
| 2026-05-08 05:15 | 36.33115 | 140.55254 | 11660 ft | 366 kts | 169° |
| 2026-05-08 05:16 | 36.30788 | 140.56438 | 11413 ft | 359 kts | 150° |
| 2026-05-08 05:16 | 36.28838 | 140.58276 | 11196 ft | 350 kts | 140° |
| 2026-05-08 05:16 | 36.27125 | 140.60355 | 11123 ft | 336 kts | 135° |
| 2026-05-08 05:16 | 36.25556 | 140.62425 | 11066 ft | 322 kts | 134° |
| 2026-05-08 05:17 | 36.24048 | 140.64450 | 11024 ft | 310 kts | 134° |
| 2026-05-08 05:17 | 36.22604 | 140.66379 | 10915 ft | 303 kts | 135° |
| 2026-05-08 05:17 | 36.21183 | 140.68269 | 10663 ft | 301 kts | 135° |
| 2026-05-08 05:17 | 36.19747 | 140.70177 | 10411 ft | 301 kts | 135° |
| 2026-05-08 05:18 | 36.18308 | 140.72072 | 10157 ft | 299 kts | 138° |
| 2026-05-08 05:18 | 36.16568 | 140.73294 | 9929 ft | 287 kts | 169° |
| 2026-05-08 05:18 | 36.14621 | 140.73418 | 9689 ft | 275 kts | 191° |
| 2026-05-08 05:18 | 36.12839 | 140.72702 | 9410 ft | 267 kts | 214° |
| 2026-05-08 05:19 | 36.11406 | 140.71283 | 9095 ft | 262 kts | 224° |
| 2026-05-08 05:19 | 36.10125 | 140.69722 | 8777 ft | 260 kts | 226° |
| 2026-05-08 05:19 | 36.08866 | 140.68131 | 8463 ft | 257 kts | 226° |
| 2026-05-08 05:19 | 36.07612 | 140.66538 | 8200 ft | 251 kts | 226° |
| 2026-05-08 05:20 | 36.06414 | 140.65016 | 7946 ft | 246 kts | 226° |
| 2026-05-08 05:20 | 36.05217 | 140.63500 | 7687 ft | 241 kts | 226° |
| 2026-05-08 05:20 | 36.04064 | 140.62038 | 7431 ft | 236 kts | 226° |
| 2026-05-08 05:20 | 36.02903 | 140.60567 | 7169 ft | 231 kts | 226° |
| 2026-05-08 05:21 | 36.01783 | 140.59149 | 6883 ft | 228 kts | 226° |
| 2026-05-08 05:21 | 36.00682 | 140.57756 | 6594 ft | 224 kts | 225° |
| 2026-05-08 05:21 | 35.99602 | 140.56389 | 6317 ft | 221 kts | 225° |
| 2026-05-08 05:21 | 35.98822 | 140.54790 | 6023 ft | 219 kts | 263° |
| 2026-05-08 05:22 | 35.98917 | 140.52881 | 6076 ft | 241 kts | 278° |
| 2026-05-08 05:22 | 35.99278 | 140.50664 | 6038 ft | 283 kts | 281° |
| 2026-05-08 05:22 | 35.99745 | 140.48171 | 5921 ft | 305 kts | 282° |
| 2026-05-08 05:22 | 36.00248 | 140.45630 | 5692 ft | 299 kts | 283° |
| 2026-05-08 05:23 | 36.00738 | 140.43214 | 5423 ft | 279 kts | 283° |
| 2026-05-08 05:23 | 36.01197 | 140.40961 | 5156 ft | 260 kts | 283° |
| 2026-05-08 05:23 | 36.01633 | 140.38826 | 4904 ft | 252 kts | 282° |
| 2026-05-08 05:23 | 36.02050 | 140.36772 | 4648 ft | 246 kts | 282° |
| 2026-05-08 05:24 | 36.02469 | 140.34714 | 4389 ft | 239 kts | 282° |
| 2026-05-08 05:24 | 36.02869 | 140.32744 | 4147 ft | 231 kts | 282° |
| 2026-05-08 05:24 | 36.03254 | 140.30853 | 3884 ft | 223 kts | 282° |
| 2026-05-08 05:24 | 36.03473 | 140.28996 | 3629 ft | 214 kts | 271° |
| 2026-05-08 05:25 | 36.03530 | 140.27190 | 3318 ft | 210 kts | 268° |
| 2026-05-08 05:25 | 36.03120 | 140.25534 | 3093 ft | 197 kts | 224° |
| 2026-05-08 05:25 | 36.01951 | 140.24739 | 3146 ft | 200 kts | 192° |
| 2026-05-08 05:25 | 36.00546 | 140.24499 | 3093 ft | 203 kts | 174° |
| 2026-05-08 05:26 | 35.99173 | 140.24809 | 3098 ft | 206 kts | 170° |
| 2026-05-08 05:26 | 35.97817 | 140.25345 | 3071 ft | 205 kts | 154° |
| 2026-05-08 05:26 | 35.96558 | 140.26199 | 3051 ft | 206 kts | 151° |
| 2026-05-08 05:26 | 35.95319 | 140.27094 | 3029 ft | 205 kts | 150° |
| 2026-05-08 05:27 | 35.94098 | 140.27982 | 3025 ft | 203 kts | 150° |
| 2026-05-08 05:27 | 35.92886 | 140.28862 | 3028 ft | 205 kts | 150° |
| 2026-05-08 05:27 | 35.91650 | 140.29759 | 2759 ft | 202 kts | 150° |
| 2026-05-08 05:27 | 35.90461 | 140.30621 | 2458 ft | 191 kts | 150° |
| 2026-05-08 05:28 | 35.89380 | 140.31404 | 2182 ft | 173 kts | 150° |
| 2026-05-08 05:28 | 35.88390 | 140.32117 | 1942 ft | 157 kts | 150° |
| 2026-05-08 05:28 | 35.87492 | 140.32767 | 1754 ft | 142 kts | 150° |
| 2026-05-08 05:28 | 35.86644 | 140.33380 | 1563 ft | 140 kts | 150° |
| 2026-05-08 05:29 | 35.85806 | 140.33986 | 1377 ft | 139 kts | 150° |
| 2026-05-08 05:29 | 35.84978 | 140.34586 | 1193 ft | 138 kts | 150° |
| 2026-05-08 05:29 | 35.84154 | 140.35182 | 1008 ft | 136 kts | 150° |
| 2026-05-08 05:29 | 35.83349 | 140.35765 | 825 ft | 134 kts | 150° |
| 2026-05-08 05:30 | 35.82537 | 140.36353 | 662 ft | 136 kts | 150° |
| 2026-05-08 05:30 | 35.81717 | 140.36945 | 495 ft | 136 kts | 150° |
| 2026-05-08 05:30 | 35.80904 | 140.37530 | 310 ft | 135 kts | 150° |
| 2026-05-08 05:30 | 35.80093 | 140.38117 | 154 ft | 132 kts | 149° |
| 2026-05-08 05:31 | 35.79444 | 140.38579 | 140 ft | 72 kts | 148° |
| 2026-05-08 05:31 | 35.79121 | 140.38821 | 136 ft | 50 kts | 149° |
| 2026-05-08 05:31 | 35.78829 | 140.39023 | 136 ft | 45 kts | 152° |
| 2026-05-08 05:31 | 35.78618 | 140.39081 | 138 ft | 17 kts | 173° |
| 2026-05-08 05:32 | 35.78599 | 140.39084 | 139 ft | 0 kts | 175° |
| 2026-05-08 05:32 | 35.78592 | 140.39084 | 140 ft | 3 kts | 174° |
| 2026-05-08 05:32 | 35.78541 | 140.39094 | 141 ft | 11 kts | 167° |
| 2026-05-08 05:32 | 35.78429 | 140.39122 | 143 ft | 20 kts | 167° |
| 2026-05-08 05:33 | 35.78270 | 140.39175 | 143 ft | 23 kts | 164° |
| 2026-05-08 05:33 | 35.78104 | 140.39143 | 146 ft | 24 kts | 214° |
| 2026-05-08 05:33 | 35.77979 | 140.39183 | 150 ft | 18 kts | 153° |
| 2026-05-08 05:33 | 35.77864 | 140.39238 | 151 ft | 17 kts | 151° |
| 2026-05-08 05:34 | 35.77854 | 140.39244 | 150 ft | 0 kts | 151° |
| 2026-05-08 05:34 | 35.77848 | 140.39249 | 150 ft | 2 kts | 151° |
| 2026-05-08 05:34 | 35.77830 | 140.39262 | 150 ft | 4 kts | 149° |
| 2026-05-08 05:34 | 35.77800 | 140.39284 | 150 ft | 5 kts | 148° |
| 2026-05-08 05:35 | 35.77763 | 140.39313 | 151 ft | 6 kts | 147° |
| 2026-05-08 05:35 | 35.77726 | 140.39342 | 152 ft | 5 kts | 148° |
| 2026-05-08 05:35 | 35.77705 | 140.39377 | 153 ft | 4 kts | 94° |
| 2026-05-08 05:35 | 35.77712 | 140.39436 | 153 ft | 12 kts | 76° |
| 2026-05-08 05:36 | 35.77706 | 140.39587 | 152 ft | 24 kts | 135° |
| 2026-05-08 05:36 | 35.77564 | 140.39690 | 150 ft | 23 kts | 149° |
| 2026-05-08 05:36 | 35.77504 | 140.39732 | 147 ft | 16 kts | 149° |